Time;durP1;ratioP1;P1;durP2;ratioP2;P2;SDS_P1;SDS_P2;PMS_P1;PMS_P2;Temp;Humidity;BMP_temperature;BMP_pressure;BME280_temperature;BME280_humidity;BME280_pressure;Samples;Min_cycle;Max_cycle;Signal;HPM_P1;HPM_P2
2021/10/26 00:00:18;;;;;;;22.10;18.15;;;16.10;91.00;;;;;;5074847;28;20161;-60
2021/10/26 00:02:44;;;;;;;15.75;14.05;;;15.90;90.90;;;;;;5058352;28;20039;-62
2021/10/26 00:05:10;;;;;;;13.63;11.93;;;15.70;91.10;;;;;;5072583;28;21100;-62
2021/10/26 00:07:36;;;;;;;12.88;8.82;;;15.50;91.40;;;;;;5059112;28;20075;-62
2021/10/26 00:10:07;;;;;;;16.98;11.95;;;15.40;91.80;;;;;;5071844;28;20047;-62
2021/10/26 00:12:32;;;;;;;12.02;9.98;;;15.50;91.80;;;;;;5072130;28;20036;-60
2021/10/26 00:14:58;;;;;;;10.90;8.95;;;15.60;91.40;;;;;;5070731;28;20054;-60
2021/10/26 00:17:25;;;;;;;12.38;8.23;;;15.70;91.20;;;;;;5071485;28;20033;-60
2021/10/26 00:19:51;;;;;;;7.07;5.43;;;15.60;91.00;;;;;;5073013;28;20033;-60
2021/10/26 00:22:16;;;;;;;12.80;10.07;;;15.60;91.30;;;;;;5071005;28;20043;-60
2021/10/26 00:24:43;;;;;;;8.70;5.25;;;15.70;91.30;;;;;;5057451;28;20029;-61
2021/10/26 00:27:09;;;;;;;8.50;5.32;;;15.80;91.00;;;;;;5071253;28;20424;-60
2021/10/26 00:29:35;;;;;;;7.72;5.00;;;15.90;90.90;;;;;;5070386;28;20130;-60
2021/10/26 00:32:01;;;;;;;10.65;8.45;;;16.00;90.80;;;;;;5072011;28;20106;-61
2021/10/26 00:34:27;;;;;;;8.10;6.30;;;16.00;90.40;;;;;;5042365;28;20053;-61
2021/10/26 00:36:53;;;;;;;6.78;5.50;;;15.90;90.30;;;;;;5070343;28;20397;-61
2021/10/26 00:39:18;;;;;;;7.65;6.07;;;15.60;90.40;;;;;;5071729;28;20439;-62
2021/10/26 00:41:45;;;;;;;8.05;4.90;;;15.50;90.60;;;;;;5074254;28;20044;-68
2021/10/26 00:44:12;;;;;;;6.95;5.40;;;15.50;91.00;;;;;;5068335;28;20036;-68
2021/10/26 00:46:38;;;;;;;7.68;5.35;;;15.60;91.20;;;;;;5056888;28;20140;-68
2021/10/26 00:49:09;;;;;;;8.13;5.25;;;15.80;91.10;;;;;;5052783;28;20056;-68
2021/10/26 00:51:35;;;;;;;7.13;5.75;;;16.10;90.80;;;;;;5072867;28;20044;-69
2021/10/26 00:54:06;;;;;;;9.35;5.85;;;16.20;90.30;;;;;;5070750;28;20039;-69
2021/10/26 00:56:33;;;;;;;6.60;5.10;;;16.20;90.30;;;;;;5069078;28;20036;-69
2021/10/26 00:59:01;;;;;;;8.18;5.75;;;16.20;90.20;;;;;;5071827;28;20042;-68
2021/10/26 01:01:27;;;;;;;8.48;5.88;;;16.20;90.20;;;;;;5071137;28;20150;-67
2021/10/26 01:03:52;;;;;;;8.50;5.88;;;16.30;90.20;;;;;;5052351;28;20635;-68
2021/10/26 01:06:18;;;;;;;8.48;6.63;;;16.30;90.10;;;;;;5086324;28;20856;-67
2021/10/26 01:08:45;;;;;;;9.60;6.82;;;16.40;89.80;;;;;;5068225;28;20066;-67
2021/10/26 01:11:11;;;;;;;10.02;7.82;;;16.40;89.10;;;;;;5071031;28;20100;-67
2021/10/26 01:13:37;;;;;;;9.85;6.00;;;16.20;88.80;;;;;;5070174;28;20037;-61
2021/10/26 01:16:04;;;;;;;8.25;5.65;;;16.20;89.50;;;;;;5067891;28;20040;-61
2021/10/26 01:18:30;;;;;;;6.57;5.13;;;16.10;89.90;;;;;;5071431;28;20385;-68
2021/10/26 01:20:56;;;;;;;8.35;5.95;;;16.30;90.00;;;;;;5087089;28;20043;-68
2021/10/26 01:23:23;;;;;;;7.32;5.30;;;16.40;89.60;;;;;;5072375;28;20033;-68
2021/10/26 01:25:50;;;;;;;7.93;5.57;;;16.60;89.00;;;;;;5068809;28;20040;-67
2021/10/26 01:28:16;;;;;;;7.43;4.85;;;16.50;88.60;;;;;;5056962;28;20389;-68
2021/10/26 01:30:42;;;;;;;7.13;5.15;;;16.60;88.60;;;;;;5070266;28;20058;-68
2021/10/26 01:33:08;;;;;;;8.20;5.40;;;16.60;88.40;;;;;;5070543;28;22214;-68
2021/10/26 01:35:36;;;;;;;7.88;5.13;;;16.50;87.60;;;;;;5042387;28;20044;-68
2021/10/26 01:38:03;;;;;;;6.22;4.88;;;16.60;87.80;;;;;;5069497;28;20051;-68
2021/10/26 01:40:29;;;;;;;6.65;5.00;;;16.60;87.70;;;;;;5060615;28;20442;-68
2021/10/26 01:42:55;;;;;;;7.50;5.20;;;16.60;87.70;;;;;;5072697;28;20035;-67
2021/10/26 01:45:21;;;;;;;8.35;5.88;;;16.40;86.70;;;;;;5069608;28;21040;-67
2021/10/26 01:47:47;;;;;;;9.55;5.78;;;15.90;85.80;;;;;;5070120;28;20076;-61
2021/10/26 01:50:15;;;;;;;8.43;6.97;;;15.30;87.20;;;;;;5057763;28;20070;-61
2021/10/26 01:52:42;;;;;;;10.00;7.43;;;14.60;88.60;;;;;;5070249;28;20116;-61
2021/10/26 01:55:09;;;;;;;7.60;5.18;;;14.00;90.30;;;;;;5070635;28;20599;-61
2021/10/26 01:57:35;;;;;;;7.70;5.60;;;13.80;91.60;;;;;;5066723;28;20052;-61
2021/10/26 02:00:07;;;;;;;10.02;5.95;;;14.00;92.30;;;;;;5071168;28;20032;-61
2021/10/26 02:02:33;;;;;;;6.70;5.53;;;14.40;92.30;;;;;;5071451;28;20118;-61
2021/10/26 02:04:59;;;;;;;7.00;5.30;;;14.70;92.10;;;;;;5070765;28;20385;-61
2021/10/26 02:07:25;;;;;;;7.88;6.00;;;14.90;91.80;;;;;;5068875;28;20043;-61
2021/10/26 02:09:51;;;;;;;11.05;8.13;;;15.10;91.40;;;;;;5057093;28;20370;-60
2021/10/26 02:12:16;;;;;;;14.98;11.60;;;15.30;91.20;;;;;;5070123;28;20102;-62
2021/10/26 02:14:42;;;;;;;15.80;11.52;;;15.20;91.10;;;;;;5086396;28;20045;-60
2021/10/26 02:17:08;;;;;;;10.25;8.23;;;15.10;91.10;;;;;;5069698;28;20043;-60
2021/10/26 02:19:34;;;;;;;10.13;7.68;;;15.10;91.20;;;;;;5087098;28;20400;-66
2021/10/26 02:22:00;;;;;;;8.25;6.00;;;15.30;91.20;;;;;;5075077;28;20032;-66
2021/10/26 02:24:27;;;;;;;11.95;8.40;;;15.60;91.00;;;;;;5076072;28;20056;-66
2021/10/26 02:26:53;;;;;;;23.80;20.08;;;15.70;90.70;;;;;;5072826;28;20050;-66
2021/10/26 02:29:19;;;;;;;21.90;17.75;;;15.80;90.30;;;;;;5072977;28;20045;-66
2021/10/26 02:31:44;;;;;;;13.02;8.45;;;15.80;90.20;;;;;;5072720;28;20465;-68
2021/10/26 02:34:10;;;;;;;7.93;5.95;;;15.60;90.30;;;;;;5091227;28;20071;-62
2021/10/26 02:36:36;;;;;;;16.75;12.57;;;15.50;90.60;;;;;;5060157;28;20471;-62
2021/10/26 02:39:05;;;;;;;10.93;7.88;;;15.60;90.50;;;;;;5072692;28;20044;-60
2021/10/26 02:41:31;;;;;;;18.77;14.43;;;15.80;90.40;;;;;;5074122;28;20568;-60
2021/10/26 02:43:57;;;;;;;30.77;22.58;;;15.80;90.10;;;;;;5091656;28;20044;-61
2021/10/26 02:46:23;;;;;;;7.03;5.13;;;15.80;89.90;;;;;;5058967;28;20051;-61
2021/10/26 02:48:49;;;;;;;8.43;6.00;;;15.70;90.10;;;;;;5073092;28;20055;-61
2021/10/26 02:51:17;;;;;;;9.10;5.47;;;15.90;90.20;;;;;;5074674;28;20055;-61
2021/10/26 02:53:44;;;;;;;11.68;9.00;;;16.00;90.10;;;;;;5073762;28;20136;-61
2021/10/26 02:56:09;;;;;;;13.88;11.13;;;16.10;89.90;;;;;;5061358;28;20137;-60
2021/10/26 02:58:35;;;;;;;9.77;8.20;;;16.10;89.50;;;;;;5070235;28;20056;-60
2021/10/26 03:01:01;;;;;;;9.88;7.20;;;16.00;89.50;;;;;;5074906;28;20033;-61
2021/10/26 03:03:27;;;;;;;7.60;5.80;;;15.90;89.70;;;;;;5056125;28;20097;-61
2021/10/26 03:05:52;;;;;;;8.15;6.30;;;15.90;90.00;;;;;;5075186;28;20039;-61
2021/10/26 03:08:18;;;;;;;9.15;6.15;;;15.90;89.90;;;;;;5087927;28;20582;-61
2021/10/26 03:10:44;;;;;;;8.00;5.72;;;16.00;89.80;;;;;;5072506;28;20086;-61
2021/10/26 03:13:10;;;;;;;15.55;9.95;;;16.10;89.50;;;;;;5088295;28;20029;-61
2021/10/26 03:15:36;;;;;;;14.63;10.35;;;16.20;89.20;;;;;;5072842;28;20124;-61
2021/10/26 03:18:02;;;;;;;18.27;14.93;;;16.20;88.90;;;;;;5073170;28;20058;-61
2021/10/26 03:20:28;;;;;;;17.10;13.52;;;16.10;88.80;;;;;;5071178;28;20094;-61
2021/10/26 03:22:54;;;;;;;10.15;6.97;;;16.00;89.10;;;;;;5072324;28;20043;-61
2021/10/26 03:25:21;;;;;;;18.98;14.57;;;15.90;89.40;;;;;;5066404;28;20059;-61
2021/10/26 03:27:48;;;;;;;8.63;6.43;;;16.00;89.50;;;;;;5071077;28;20045;-61
2021/10/26 03:30:15;;;;;;;8.75;6.45;;;16.00;89.50;;;;;;5072976;28;20040;-61
2021/10/26 03:32:41;;;;;;;10.68;8.40;;;16.10;89.60;;;;;;5070341;28;20067;-61
2021/10/26 03:35:07;;;;;;;9.45;6.90;;;16.20;89.20;;;;;;5073666;28;20048;-61
2021/10/26 03:37:35;;;;;;;9.88;7.72;;;16.20;89.00;;;;;;5072189;28;20127;-61
2021/10/26 03:40:01;;;;;;;8.02;6.13;;;16.20;88.80;;;;;;5070013;28;20144;-61
2021/10/26 03:42:27;;;;;;;11.40;8.52;;;16.30;88.70;;;;;;5060124;28;20519;-61
2021/10/26 03:44:53;;;;;;;12.15;9.55;;;16.30;88.40;;;;;;5074315;28;20067;-61
2021/10/26 03:47:20;;;;;;;9.55;5.70;;;16.30;88.20;;;;;;5072307;28;20507;-61
2021/10/26 03:49:46;;;;;;;18.55;14.20;;;16.30;88.30;;;;;;5072637;28;20381;-61
2021/10/26 03:52:12;;;;;;;21.42;13.48;;;16.30;88.20;;;;;;5072968;28;20055;-61
2021/10/26 03:54:39;;;;;;;9.38;7.63;;;16.20;88.00;;;;;;5072357;28;20933;-60
2021/10/26 03:57:14;;;;;;;12.60;7.38;;;16.10;88.10;;;;;;5072342;28;20037;-61
2021/10/26 03:59:40;;;;;;;7.35;5.22;;;16.20;88.30;;;;;;5071749;28;20044;-61
2021/10/26 04:02:10;;;;;;;7.63;5.78;;;16.20;88.20;;;;;;5059613;28;20131;-61
2021/10/26 04:04:36;;;;;;;11.50;7.57;;;16.30;88.10;;;;;;5073427;28;20040;-61
2021/10/26 04:07:05;;;;;;;8.38;6.43;;;16.30;87.90;;;;;;5074346;28;20048;-61
2021/10/26 04:09:56;;;;;;;11.45;8.93;;;16.30;87.70;;;;;;5071736;28;20377;-61
2021/10/26 04:12:25;;;;;;;6.13;5.20;;;16.20;87.50;;;;;;5071846;28;20041;-61
2021/10/26 04:14:56;;;;;;;6.57;5.57;;;16.20;87.80;;;;;;5069971;28;20326;-62
2021/10/26 04:17:24;;;;;;;6.97;5.40;;;16.30;87.70;;;;;;5071113;28;20063;-61
2021/10/26 04:19:51;;;;;;;11.90;7.13;;;16.30;87.70;;;;;;5072056;28;20103;-62
2021/10/26 04:22:20;;;;;;;15.98;12.07;;;16.30;87.60;;;;;;5070817;28;20048;-62
2021/10/26 04:24:47;;;;;;;8.50;5.75;;;16.40;86.90;;;;;;5072197;28;20052;-62
2021/10/26 04:27:13;;;;;;;6.75;5.68;;;16.30;87.20;;;;;;5074877;28;20036;-61
2021/10/26 04:29:41;;;;;;;7.05;5.63;;;16.30;87.40;;;;;;5070406;28;20040;-62
2021/10/26 04:32:09;;;;;;;6.03;4.60;;;16.30;87.60;;;;;;5041174;28;20040;-67
2021/10/26 04:34:35;;;;;;;6.88;5.13;;;16.30;87.40;;;;;;5072069;28;20135;-68
2021/10/26 04:37:01;;;;;;;8.52;5.80;;;16.30;87.40;;;;;;5072967;28;20041;-67
2021/10/26 04:39:27;;;;;;;7.47;5.85;;;16.30;87.50;;;;;;5071619;28;20549;-67
2021/10/26 04:41:53;;;;;;;6.40;5.32;;;16.30;87.60;;;;;;5057445;28;20127;-67
2021/10/26 04:44:18;;;;;;;7.95;5.80;;;16.30;87.40;;;;;;5072702;28;20070;-68
2021/10/26 04:46:44;;;;;;;7.70;5.57;;;16.30;87.20;;;;;;5071983;28;20113;-62
2021/10/26 04:49:10;;;;;;;7.03;5.22;;;16.30;87.30;;;;;;5070752;28;20120;-62
2021/10/26 04:51:36;;;;;;;7.38;5.10;;;16.30;87.80;;;;;;5087058;28;20037;-61
2021/10/26 04:54:01;;;;;;;5.97;4.50;;;16.30;87.90;;;;;;5069066;28;20153;-61
2021/10/26 04:56:27;;;;;;;8.00;5.85;;;16.30;88.00;;;;;;5087196;28;20047;-62
2021/10/26 04:58:53;;;;;;;7.05;5.55;;;16.30;87.80;;;;;;5069642;28;20040;-61
2021/10/26 05:01:19;;;;;;;10.13;5.45;;;16.40;87.80;;;;;;5057537;28;20123;-61
2021/10/26 05:03:44;;;;;;;12.02;10.10;;;16.40;87.50;;;;;;5070627;28;20051;-67
2021/10/26 05:06:10;;;;;;;8.45;5.28;;;16.40;86.80;;;;;;5087757;28;20522;-67
2021/10/26 05:08:36;;;;;;;19.33;14.10;;;16.30;86.80;;;;;;5073385;28;20148;-61
2021/10/26 05:11:01;;;;;;;6.38;4.47;;;16.30;86.20;;;;;;5075658;28;20094;-61
2021/10/26 05:13:29;;;;;;;5.88;4.43;;;16.20;86.40;;;;;;5068740;28;20032;-61
2021/10/26 05:15:57;;;;;;;7.32;5.38;;;16.10;87.10;;;;;;5068829;28;20049;-60
2021/10/26 05:18:23;;;;;;;11.68;7.80;;;16.10;87.50;;;;;;5071682;28;20046;-60
2021/10/26 05:20:50;;;;;;;11.10;4.28;;;16.00;87.30;;;;;;5058554;28;20052;-61
2021/10/26 05:23:17;;;;;;;15.63;11.00;;;16.00;88.10;;;;;;5068497;28;20055;-65
2021/10/26 05:25:47;;;;;;;16.48;12.82;;;15.90;87.20;;;;;;5086406;28;20044;-65
2021/10/26 05:28:13;;;;;;;15.05;10.98;;;15.50;86.30;;;;;;5088904;28;20487;-65
2021/10/26 05:30:39;;;;;;;15.20;11.45;;;15.00;86.90;;;;;;5068282;28;20045;-65
2021/10/26 05:33:05;;;;;;;16.35;11.13;;;14.60;87.80;;;;;;5069577;28;20028;-64
2021/10/26 05:35:31;;;;;;;14.88;11.35;;;14.20;88.70;;;;;;5086613;28;20468;-65
2021/10/26 05:37:56;;;;;;;14.43;11.32;;;13.90;89.50;;;;;;5056742;28;20040;-65
2021/10/26 05:40:22;;;;;;;15.73;11.50;;;13.70;90.20;;;;;;5086922;28;20060;-65
2021/10/26 05:42:48;;;;;;;15.13;11.95;;;13.50;90.50;;;;;;5084153;28;20048;-66
2021/10/26 05:45:13;;;;;;;16.75;11.93;;;13.20;90.70;;;;;;5087254;28;20046;-65
2021/10/26 05:47:39;;;;;;;15.75;13.02;;;13.10;91.00;;;;;;5069897;28;20682;-65
2021/10/26 05:50:06;;;;;;;16.63;12.75;;;12.90;91.30;;;;;;5086954;28;20048;-63
2021/10/26 05:52:31;;;;;;;17.98;12.70;;;12.80;91.60;;;;;;5084931;28;20098;-64
2021/10/26 05:54:57;;;;;;;16.02;12.15;;;12.60;91.90;;;;;;5085446;28;20057;-65
2021/10/26 05:57:23;;;;;;;18.42;13.32;;;12.60;92.20;;;;;;5083180;28;20036;-65
2021/10/26 05:59:48;;;;;;;22.15;15.18;;;12.60;92.30;;;;;;5051092;28;20039;-68
2021/10/26 06:02:14;;;;;;;19.33;13.65;;;12.50;92.40;;;;;;5085063;28;20032;-65
2021/10/26 06:04:40;;;;;;;18.23;12.88;;;12.40;92.70;;;;;;5085558;28;20487;-65
2021/10/26 06:07:06;;;;;;;23.85;15.65;;;12.40;93.00;;;;;;5040144;28;20040;-66
2021/10/26 06:09:34;;;;;;;23.80;15.38;;;12.30;93.40;;;;;;5058310;28;20049;-66
2021/10/26 06:12:02;;;;;;;28.67;16.55;;;12.30;93.60;;;;;;5084879;28;20075;-65
2021/10/26 06:14:28;;;;;;;30.27;17.10;;;12.20;93.90;;;;;;5081199;28;20044;-66
2021/10/26 06:17:00;;;;;;;23.38;15.63;;;12.10;94.20;;;;;;5084191;28;20045;-65
2021/10/26 06:19:26;;;;;;;22.90;17.15;;;12.10;94.40;;;;;;5049296;28;20127;-66
2021/10/26 06:21:52;;;;;;;24.67;17.08;;;12.00;94.50;;;;;;5039170;28;20046;-66
2021/10/26 06:24:18;;;;;;;30.83;18.75;;;12.00;94.70;;;;;;5086097;28;20059;-66
2021/10/26 06:26:43;;;;;;;29.15;18.65;;;12.00;94.80;;;;;;5056525;28;20101;-66
2021/10/26 06:29:09;;;;;;;43.55;19.90;;;11.90;94.90;;;;;;5082971;28;20139;-65
2021/10/26 06:31:35;;;;;;;24.60;16.90;;;11.90;95.10;;;;;;5069596;28;20056;-66
2021/10/26 06:34:01;;;;;;;25.75;17.63;;;11.80;95.30;;;;;;5069477;28;20033;-66
2021/10/26 06:36:27;;;;;;;23.45;17.20;;;11.80;95.50;;;;;;5084541;28;20118;-66
2021/10/26 06:38:53;;;;;;;27.92;19.80;;;11.90;95.60;;;;;;5055060;28;20147;-65
2021/10/26 06:41:20;;;;;;;29.35;20.75;;;11.90;95.60;;;;;;5069001;28;20041;-66
2021/10/26 06:43:46;;;;;;;34.50;23.02;;;11.90;95.70;;;;;;5058079;28;20046;-66
2021/10/26 06:46:11;;;;;;;38.75;22.00;;;11.90;95.80;;;;;;5083003;28;20036;-67
2021/10/26 06:48:37;;;;;;;39.17;23.25;;;11.90;95.80;;;;;;5039933;28;20040;-67
2021/10/26 06:51:04;;;;;;;30.30;21.65;;;11.90;95.90;;;;;;5050963;28;20391;-66
2021/10/26 06:53:30;;;;;;;27.02;18.00;;;11.90;96.00;;;;;;5085612;28;20044;-66
2021/10/26 06:56:03;;;;;;;37.38;20.75;;;11.90;96.10;;;;;;5056796;28;20052;-66
2021/10/26 06:58:28;;;;;;;29.80;19.35;;;11.90;96.20;;;;;;5082064;28;20096;-66
2021/10/26 07:00:54;;;;;;;29.98;19.55;;;11.90;96.20;;;;;;5033777;28;20484;-66
2021/10/26 07:03:21;;;;;;;20.77;16.08;;;11.90;96.20;;;;;;5084357;28;20072;-66
2021/10/26 07:05:47;;;;;;;30.13;20.33;;;12.00;96.30;;;;;;5084583;28;20109;-65
2021/10/26 07:08:13;;;;;;;32.95;19.92;;;12.10;96.30;;;;;;5084880;28;20037;-67
2021/10/26 07:10:39;;;;;;;25.75;17.98;;;12.10;96.20;;;;;;5084298;28;20044;-69
2021/10/26 07:13:04;;;;;;;30.52;19.50;;;12.10;96.20;;;;;;5069636;28;20037;-69
2021/10/26 07:15:32;;;;;;;27.25;18.90;;;12.20;96.20;;;;;;5086394;28;20044;-69
2021/10/26 07:17:59;;;;;;;26.40;18.23;;;12.20;96.10;;;;;;5056073;28;20048;-74
2021/10/26 07:20:25;;;;;;;25.98;17.48;;;12.20;96.20;;;;;;5059944;28;20036;-70
2021/10/26 07:22:52;;;;;;;24.17;17.33;;;12.30;96.20;;;;;;5037004;28;20064;-70
2021/10/26 07:25:18;;;;;;;28.88;18.30;;;12.30;96.10;;;;;;5071510;28;20056;-69
2021/10/26 07:27:46;;;;;;;25.88;16.27;;;12.30;96.00;;;;;;5087804;28;20044;-67
2021/10/26 07:30:12;;;;;;;23.48;16.27;;;12.30;96.00;;;;;;5072657;28;20043;-70
2021/10/26 07:32:39;;;;;;;26.98;17.63;;;12.30;96.00;;;;;;5086752;28;20045;-65
2021/10/26 07:35:06;;;;;;;24.88;16.48;;;12.20;96.00;;;;;;5043257;28;20041;-62
2021/10/26 07:37:39;;;;;;;27.20;17.77;;;12.20;96.00;;;;;;5060506;28;20105;-67
2021/10/26 07:40:05;;;;;;;25.17;18.15;;;12.20;96.10;;;;;;5059218;28;20145;-65
2021/10/26 07:42:31;;;;;;;24.58;15.38;;;12.20;96.10;;;;;;5069015;28;20042;-64
2021/10/26 07:44:57;;;;;;;33.90;17.38;;;12.30;96.20;;;;;;5086807;28;20036;-64
2021/10/26 07:47:23;;;;;;;23.67;15.50;;;12.30;96.20;;;;;;5071618;28;20052;-66
2021/10/26 07:49:50;;;;;;;28.83;18.08;;;12.30;96.20;;;;;;5087151;28;20047;-65
2021/10/26 07:52:17;;;;;;;30.05;15.80;;;12.30;96.20;;;;;;5055084;28;20032;-65
2021/10/26 07:54:49;;;;;;;27.10;16.90;;;12.40;96.30;;;;;;5087469;28;20095;-67
2021/10/26 07:57:15;;;;;;;26.63;18.52;;;12.30;96.20;;;;;;5085086;28;20037;-65
2021/10/26 07:59:43;;;;;;;31.45;16.98;;;12.40;96.30;;;;;;5068037;28;20141;-67
2021/10/26 08:02:09;;;;;;;26.42;18.67;;;12.40;96.30;;;;;;5069980;28;20515;-68
2021/10/26 08:04:36;;;;;;;28.25;16.40;;;12.40;96.40;;;;;;5070454;28;20510;-63
2021/10/26 08:07:01;;;;;;;32.72;18.48;;;12.50;96.40;;;;;;5086562;28;20048;-65
2021/10/26 08:09:27;;;;;;;32.13;17.90;;;12.50;96.40;;;;;;5059366;28;20043;-65
2021/10/26 08:11:53;;;;;;;32.58;17.65;;;12.50;96.40;;;;;;5060048;28;20041;-65
2021/10/26 08:14:18;;;;;;;27.55;17.80;;;12.50;96.40;;;;;;5072347;28;20124;-68
2021/10/26 08:16:44;;;;;;;32.97;18.58;;;12.60;96.50;;;;;;5070375;28;20054;-64
2021/10/26 08:19:10;;;;;;;28.98;17.60;;;12.60;96.50;;;;;;5058033;28;20049;-66
2021/10/26 08:21:36;;;;;;;38.00;17.75;;;12.70;96.50;;;;;;5058670;28;20048;-68
2021/10/26 08:24:02;;;;;;;27.00;18.50;;;12.70;96.50;;;;;;5050279;28;20110;-65
2021/10/26 08:26:34;;;;;;;35.33;17.40;;;12.80;96.50;;;;;;5052400;28;20089;-67
2021/10/26 08:29:32;;;;;;;27.10;16.40;;;12.80;96.50;;;;;;5059615;28;20103;-64
2021/10/26 08:34:30;;;;;;;28.35;19.27;;;12.90;96.60;;;;;;5068632;28;20067;-65
2021/10/26 08:36:56;;;;;;;31.35;18.33;;;12.90;96.50;;;;;;5058659;28;20054;-61
2021/10/26 08:39:22;;;;;;;28.40;18.00;;;12.90;96.40;;;;;;5069249;28;20036;-61
2021/10/26 08:41:49;;;;;;;29.13;17.55;;;12.90;96.40;;;;;;5059488;28;20728;-61
2021/10/26 08:44:17;;;;;;;36.55;19.20;;;13.00;96.40;;;;;;5071113;28;20039;-61
2021/10/26 08:46:45;;;;;;;30.20;18.13;;;13.10;96.50;;;;;;5083796;28;20048;-61
2021/10/26 08:49:13;;;;;;;30.08;18.77;;;13.30;96.50;;;;;;5068636;28;20044;-60
2021/10/26 08:51:44;;;;;;;30.75;18.25;;;13.40;96.30;;;;;;5069576;28;20057;-61
2021/10/26 08:54:11;;;;;;;29.80;18.33;;;13.50;96.10;;;;;;5057489;28;20109;-61
2021/10/26 08:56:37;;;;;;;24.20;16.83;;;13.60;96.00;;;;;;5071110;28;20059;-60
2021/10/26 08:59:04;;;;;;;27.08;16.27;;;13.70;96.00;;;;;;5069401;28;20044;-61
2021/10/26 09:01:31;;;;;;;24.27;14.85;;;13.80;95.90;;;;;;5039708;28;20392;-61
2021/10/26 09:04:07;;;;;;;23.27;15.57;;;14.10;95.80;;;;;;5058985;28;20116;-61
2021/10/26 09:06:43;;;;;;;23.33;16.63;;;14.20;95.50;;;;;;5057605;28;20054;-60
2021/10/26 09:09:23;;;;;;;23.60;14.25;;;14.40;95.20;;;;;;5049363;28;20047;-61
2021/10/26 09:17:46;;;;;;;;;;;14.80;94.40;;;;;;5074148;28;20051;-65
2021/10/26 09:20:23;;;;;;;21.25;12.25;;;14.90;94.60;;;;;;5083254;28;19920;-62
2021/10/26 09:22:51;;;;;;;18.23;11.80;;;15.10;94.30;;;;;;5065028;28;20144;-63
2021/10/26 09:25:20;;;;;;;18.33;12.15;;;15.30;94.00;;;;;;5085271;28;20055;-66
2021/10/26 09:27:49;;;;;;;21.42;11.88;;;15.40;93.60;;;;;;5084626;28;20055;-65
2021/10/26 09:30:19;;;;;;;20.50;12.13;;;15.40;93.30;;;;;;5047657;28;20040;-62
2021/10/26 09:32:48;;;;;;;19.58;11.60;;;15.50;93.10;;;;;;5084143;28;20044;-61
2021/10/26 09:35:19;;;;;;;14.65;9.05;;;15.50;92.90;;;;;;5068591;28;20040;-62
2021/10/26 09:37:52;;;;;;;19.35;10.48;;;15.60;92.80;;;;;;5057390;28;20070;-61
2021/10/26 09:40:18;;;;;;;;;;;15.70;92.70;;;;;;5069652;28;20041;-61
2021/10/26 09:42:49;;;;;;;18.08;9.82;;;15.80;92.90;;;;;;5071300;28;19951;-61
2021/10/26 09:45:24;;;;;;;17.45;9.63;;;15.90;92.50;;;;;;5072519;28;20040;-67
2021/10/26 09:47:55;;;;;;;20.42;10.23;;;15.90;92.10;;;;;;5040796;28;20574;-67
2021/10/26 09:50:32;;;;;;;19.63;10.25;;;15.90;92.20;;;;;;5069578;28;20136;-68
2021/10/26 09:53:06;;;;;;;20.70;9.57;;;15.90;92.20;;;;;;5060114;28;20052;-69
2021/10/26 09:55:47;;;;;;;41.50;27.02;;;16.00;92.20;;;;;;5069527;28;20044;-70
2021/10/26 09:58:15;;;;;;;14.10;9.05;;;16.30;92.20;;;;;;5083708;28;20387;-67
2021/10/26 10:00:45;;;;;;;18.08;8.77;;;16.40;91.80;;;;;;5058278;28;20617;-68
2021/10/26 10:03:22;;;;;;;13.90;8.32;;;16.40;91.40;;;;;;5082564;28;22294;-68
2021/10/26 10:06:09;;;;;;;16.20;8.32;;;16.50;91.20;;;;;;5068032;28;20043;-67
2021/10/26 10:08:39;;;;;;;12.85;7.70;;;16.50;91.10;;;;;;5066693;28;20052;-67
2021/10/26 10:11:05;;;;;;;10.80;7.18;;;16.50;90.80;;;;;;5068294;28;20159;-66
2021/10/26 10:13:32;;;;;;;19.88;7.05;;;16.50;90.90;;;;;;5068632;28;20549;-66
2021/10/26 10:15:58;;;;;;;13.55;6.70;;;16.60;90.80;;;;;;5067375;28;20036;-67
2021/10/26 10:18:24;;;;;;;12.70;7.00;;;16.70;90.80;;;;;;5067878;28;20053;-67
2021/10/26 10:20:57;;;;;;;14.43;6.65;;;16.80;90.60;;;;;;5068049;28;20119;-67
2021/10/26 10:23:25;;;;;;;10.52;6.18;;;16.70;90.20;;;;;;5067376;28;20043;-67
2021/10/26 10:25:53;;;;;;;15.80;6.50;;;16.70;90.40;;;;;;5071153;28;20055;-67
2021/10/26 10:28:20;;;;;;;15.82;7.07;;;16.60;90.50;;;;;;5069670;28;20055;-67
2021/10/26 10:30:47;;;;;;;12.70;5.97;;;16.70;90.50;;;;;;5068096;28;20084;-67
2021/10/26 10:33:15;;;;;;;12.55;6.47;;;16.70;90.40;;;;;;5065906;28;20028;-67
2021/10/26 10:35:43;;;;;;;13.43;6.43;;;16.70;90.30;;;;;;5067489;28;20044;-67
2021/10/26 10:38:09;;;;;;;14.35;5.55;;;16.90;90.40;;;;;;5067859;28;20957;-70
2021/10/26 10:40:36;;;;;;;15.00;7.43;;;17.00;90.40;;;;;;5068703;28;20056;-69
2021/10/26 10:43:02;;;;;;;16.27;7.10;;;17.10;90.00;;;;;;5072050;28;20082;-68
2021/10/26 10:45:34;;;;;;;15.70;7.13;;;17.10;90.10;;;;;;5071306;28;20047;-67
2021/10/26 10:48:21;;;;;;;15.68;7.20;;;17.00;90.60;;;;;;5085968;28;20045;-67
2021/10/26 10:51:08;;;;;;;12.95;6.93;;;17.00;90.60;;;;;;5070867;28;20076;-68
2021/10/26 10:53:35;;;;;;;13.75;7.03;;;16.90;91.70;;;;;;5073541;28;20055;-68
2021/10/26 10:56:19;;;;;;;13.00;6.25;;;17.00;92.10;;;;;;5071277;28;20021;-67
2021/10/26 10:58:47;;;;;;;14.05;6.38;;;17.00;92.10;;;;;;5085818;28;20047;-67
2021/10/26 11:01:32;;;;;;;21.50;8.45;;;16.90;92.70;;;;;;5073239;28;20048;-65
2021/10/26 11:04:00;;;;;;;12.18;6.90;;;16.90;92.00;;;;;;5073797;28;20045;-66
2021/10/26 11:06:41;;;;;;;18.05;7.47;;;16.80;91.90;;;;;;5072421;28;20048;-68
2021/10/26 11:09:28;;;;;;;19.52;6.85;;;16.70;91.00;;;;;;5072617;28;20057;-67
2021/10/26 11:12:19;;;;;;;14.32;6.95;;;16.70;91.60;;;;;;5071464;28;20185;-65
2021/10/26 11:14:55;;;;;;;84.03;74.30;;;16.70;91.10;;;;;;5070951;28;20155;-60
2021/10/26 11:17:36;;;;;;;92.07;78.25;;;16.60;91.20;;;;;;5069503;28;20040;-60
2021/10/26 11:20:23;;;;;;;156.80;140.43;;;16.60;90.90;;;;;;5071419;28;20094;-60
2021/10/26 11:23:02;;;;;;;34.15;23.48;;;16.50;91.60;;;;;;5071865;28;20119;-60
2021/10/26 11:25:28;;;;;;;20.80;10.25;;;16.50;91.30;;;;;;5070792;28;20036;-60
2021/10/26 11:27:55;;;;;;;16.27;9.32;;;16.50;90.70;;;;;;5070255;28;20041;-61
2021/10/26 11:30:36;;;;;;;13.35;9.23;;;16.40;90.60;;;;;;5072116;28;20498;-60
2021/10/26 11:33:15;;;;;;;15.45;9.43;;;16.40;90.70;;;;;;5085093;28;20032;-60
2021/10/26 11:35:47;;;;;;;19.25;10.25;;;16.30;90.90;;;;;;5071852;28;20048;-60
2021/10/26 11:38:15;;;;;;;16.05;8.63;;;16.20;90.80;;;;;;5070395;28;20079;-67
2021/10/26 11:40:55;;;;;;;15.05;7.90;;;16.20;90.90;;;;;;5072578;28;20173;-67
2021/10/26 11:43:22;;;;;;;12.45;7.22;;;16.10;90.90;;;;;;5071095;28;20047;-67
2021/10/26 11:45:56;;;;;;;15.75;8.25;;;16.00;91.40;;;;;;5069240;28;20067;-68
2021/10/26 11:48:40;;;;;;;14.73;7.03;;;16.10;91.20;;;;;;5070491;28;20135;-67
2021/10/26 11:51:21;;;;;;;14.48;7.43;;;16.00;91.20;;;;;;5071887;28;20114;-60
2021/10/26 11:53:51;;;;;;;21.67;8.85;;;16.00;91.40;;;;;;5069876;28;20044;-60
2021/10/26 11:56:22;;;;;;;15.77;7.90;;;16.00;91.20;;;;;;5072133;28;20059;-60
2021/10/26 11:59:03;;;;;;;10.38;5.63;;;16.10;91.10;;;;;;5070785;28;20051;-60
2021/10/26 12:01:34;;;;;;;14.30;5.70;;;16.10;91.40;;;;;;5070062;28;20036;-60
2021/10/26 12:04:15;;;;;;;11.57;5.63;;;16.20;91.70;;;;;;5071193;28;20053;-61
2021/10/26 12:06:42;;;;;;;13.85;7.35;;;16.40;91.50;;;;;;5068905;28;20052;-60
2021/10/26 12:09:14;;;;;;;12.02;4.55;;;16.60;91.00;;;;;;5071539;28;20378;-60
2021/10/26 12:11:42;;;;;;;7.53;3.33;;;16.80;91.10;;;;;;5071073;28;20036;-60
2021/10/26 12:14:28;;;;;;;11.68;5.95;;;16.90;91.30;;;;;;5058791;28;20071;-60
2021/10/26 12:17:14;;;;;;;10.90;4.70;;;17.20;90.60;;;;;;5042439;28;20040;-60
2021/10/26 12:20:18;;;;;;;17.20;6.15;;;17.50;90.00;;;;;;5069088;28;20207;-61
2021/10/26 12:22:46;;;;;;;11.00;5.03;;;17.70;88.80;;;;;;5069673;28;20036;-61
2021/10/26 12:25:22;;;;;;;7.28;4.00;;;17.80;88.10;;;;;;5072632;28;20036;-60
2021/10/26 12:27:48;;;;;;;10.10;3.38;;;17.80;88.00;;;;;;5070847;28;20056;-60
2021/10/26 12:30:23;;;;;;;9.45;3.78;;;17.80;88.50;;;;;;5071410;28;20036;-61
2021/10/26 12:32:53;;;;;;;7.53;3.35;;;17.90;87.20;;;;;;5069599;28;20044;-60
2021/10/26 12:35:20;;;;;;;7.78;3.38;;;17.80;87.50;;;;;;5070578;28;20043;-60
2021/10/26 12:37:45;;;;;;;7.47;3.70;;;17.80;87.20;;;;;;5067391;28;20059;-60
2021/10/26 12:40:20;;;;;;;12.70;4.00;;;17.70;86.70;;;;;;5067678;28;20496;-60
2021/10/26 12:43:01;;;;;;;10.57;3.80;;;17.60;87.10;;;;;;5069610;28;20036;-60
2021/10/26 12:45:38;;;;;;;9.15;3.97;;;17.60;87.10;;;;;;5057033;28;20037;-61
2021/10/26 12:48:11;;;;;;;10.00;4.05;;;17.50;86.70;;;;;;5071245;28;20049;-60
2021/10/26 12:53:18;;;;;;;9.80;4.47;;;17.20;86.40;;;;;;5072050;28;20407;-60